Time;durP1;ratioP1;P1;durP2;ratioP2;P2;SDS_P1;SDS_P2;PMS_P1;PMS_P2;Temp;Humidity;BMP_temperature;BMP_pressure;BME280_temperature;BME280_humidity;BME280_pressure;Samples;Min_cycle;Max_cycle;Signal;HPM_P1;HPM_P2
2023/10/16 00:01:11;;;;;;;1.27;1.27;;;;;;;14.87;76.77;96331.59;5005586;28;20331;-59
2023/10/16 00:03:41;;;;;;;1.20;1.20;;;;;;;14.82;76.58;96315.31;5006526;28;20551;-57
2023/10/16 00:06:12;;;;;;;1.30;1.30;;;;;;;14.94;76.80;96339.84;5006933;28;20052;-57
2023/10/16 00:08:53;;;;;;;1.27;1.27;;;;;;;15.05;76.69;96337.72;5005996;28;20489;-58
2023/10/16 00:11:25;;;;;;;1.50;1.50;;;;;;;15.14;76.43;96336.03;5005050;28;20147;-58
2023/10/16 00:13:56;;;;;;;1.23;1.23;;;;;;;15.20;76.65;96344.72;5006752;28;20514;-57
2023/10/16 00:16:23;;;;;;;1.35;1.35;;;;;;;15.25;76.16;96352.66;5006399;28;20078;-58
2023/10/16 00:18:53;;;;;;;1.17;1.17;;;;;;;15.29;75.95;96342.22;5006251;28;20132;-56
2023/10/16 00:21:21;;;;;;;1.45;1.45;;;;;;;15.50;75.69;96353.16;5006249;28;20108;-59
2023/10/16 00:23:47;;;;;;;1.38;1.38;;;;;;;15.47;76.25;96342.81;5006356;28;20049;-56
2023/10/16 00:26:21;;;;;;;1.40;1.40;;;;;;;15.72;75.96;96354.44;5021254;28;20432;-58
2023/10/16 00:28:52;;;;;;;;;;;;;;;15.62;75.57;96355.38;5005819;28;20061;-57
2023/10/16 00:31:22;;;;;;;1.30;1.30;;;;;;;15.58;75.50;96365.00;5006056;28;19940;-57
2023/10/16 00:33:50;;;;;;;1.33;1.33;;;;;;;15.74;74.65;96352.03;5004580;28;20452;-57
2023/10/16 00:36:17;;;;;;;1.45;1.45;;;;;;;15.93;74.13;96365.28;5005752;28;20056;-59
2023/10/16 00:38:51;;;;;;;1.30;1.30;;;;;;;15.98;73.12;96356.44;5005826;28;20221;-58
2023/10/16 00:41:24;;;;;;;1.40;1.40;;;;;;;16.13;72.53;96369.00;5005854;28;20138;-57
2023/10/16 00:43:51;;;;;;;1.60;1.60;;;;;;;16.18;71.98;96376.91;5005940;28;20046;-57
2023/10/16 00:46:38;;;;;;;1.50;1.50;;;;;;;16.31;71.53;96366.69;5006154;28;20065;-59
2023/10/16 00:49:06;;;;;;;1.48;1.48;;;;;;;16.41;71.22;96362.94;5005929;28;20053;-59
2023/10/16 00:51:36;;;;;;;1.42;1.42;;;;;;;15.99;71.08;96296.56;5005555;28;20053;-57
2023/10/16 00:54:16;;;;;;;1.38;1.38;;;;;;;16.26;72.04;96364.41;5006020;28;20081;-57
2023/10/16 00:56:49;;;;;;;1.50;1.50;;;;;;;16.52;71.48;96374.75;5006098;28;20053;-60
2023/10/16 00:59:16;;;;;;;1.50;1.50;;;;;;;16.29;70.84;96321.63;5005905;28;20381;-57
2023/10/16 01:01:47;;;;;;;1.40;1.40;;;;;;;16.34;69.96;96318.31;5005737;28;20050;-58
2023/10/16 01:04:15;;;;;;;1.65;1.65;;;;;;;16.72;69.95;96388.03;5005770;28;20103;-57
2023/10/16 01:06:44;;;;;;;1.58;1.58;;;;;;;16.70;70.47;96402.44;5004108;28;20084;-59
2023/10/16 01:09:24;;;;;;;1.70;1.70;;;;;;;16.80;70.06;96389.47;5005028;28;20136;-57
2023/10/16 01:11:53;;;;;;;1.50;1.50;;;;;;;16.81;70.21;96388.25;5005188;28;20050;-58
2023/10/16 01:14:20;;;;;;;1.55;1.55;;;;;;;16.73;70.16;96378.41;5005533;28;20628;-58
2023/10/16 01:16:46;;;;;;;1.70;1.70;;;;;;;16.80;69.64;96392.28;5005427;28;20108;-60
2023/10/16 01:19:19;;;;;;;1.52;1.52;;;;;;;16.78;69.11;96391.91;5005534;28;20108;-57
2023/10/16 01:21:47;;;;;;;1.60;1.60;;;;;;;16.33;69.78;96361.47;5005609;28;20072;-58
2023/10/16 01:24:14;;;;;;;1.60;1.60;;;;;;;16.31;70.64;96414.19;5004859;28;20124;-58
2023/10/16 01:26:42;;;;;;;1.50;1.50;;;;;;;16.44;70.43;96412.44;5004752;28;20054;-58
2023/10/16 01:29:10;;;;;;;1.60;1.60;;;;;;;16.28;70.21;96369.56;5004892;28;20416;-59
2023/10/16 01:31:37;;;;;;;1.60;1.60;;;;;;;16.49;69.95;96431.53;5004805;28;20076;-57
2023/10/16 01:34:10;;;;;;;1.50;1.50;;;;;;;16.43;69.80;96438.78;5005013;28;20054;-57
2023/10/16 01:36:37;;;;;;;;;;;;;;;16.43;69.59;96427.63;5005567;28;20050;-58
2023/10/16 01:39:35;;;;;;;1.33;1.33;;;;;;;16.29;70.07;96433.41;5003404;28;19926;-60
2023/10/16 01:41:52;;;;;;;1.40;1.40;;;;;;;16.31;69.47;96442.16;5004864;28;20053;-59
2023/10/16 01:44:19;;;;;;;1.50;1.50;;;;;;;16.38;69.15;96447.66;5005160;28;20066;-59
2023/10/16 01:46:47;;;;;;;1.42;1.42;;;;;;;16.19;67.83;96428.78;5005036;28;20050;-57
2023/10/16 01:49:15;;;;;;;1.48;1.48;;;;;;;16.33;67.89;96456.50;5003498;28;20318;-57
2023/10/16 01:51:44;;;;;;;1.30;1.30;;;;;;;16.12;67.81;96434.44;5004400;28;20144;-57
2023/10/16 01:54:14;;;;;;;1.50;1.50;;;;;;;16.22;67.66;96458.66;5003231;28;20510;-57
2023/10/16 01:56:41;;;;;;;1.63;1.63;;;;;;;16.29;67.19;96469.75;5002777;28;20049;-57
2023/10/16 01:59:08;;;;;;;1.50;1.50;;;;;;;16.26;67.09;96481.78;5004633;28;20050;-58
2023/10/16 02:01:34;;;;;;;1.35;1.35;;;;;;;16.34;66.86;96474.84;5004486;28;20050;-58
2023/10/16 02:04:04;;;;;;;1.55;1.55;;;;;;;15.81;66.83;96393.81;4993624;28;20057;-57
2023/10/16 02:06:31;;;;;;;1.50;1.50;;;;;;;16.25;66.93;96471.00;5003981;28;20057;-57
2023/10/16 02:08:59;;;;;;;1.40;1.40;;;;;;;16.20;67.14;96477.84;5004109;28;20081;-57
2023/10/16 02:11:26;;;;;;;1.40;1.40;;;;;;;16.21;67.34;96485.03;5004144;28;20061;-58
2023/10/16 02:13:53;;;;;;;1.52;1.52;;;;;;;16.20;68.04;96480.66;5002672;28;20136;-59
2023/10/16 02:16:19;;;;;;;1.40;1.40;;;;;;;16.01;68.76;96495.28;5004621;28;20548;-57
2023/10/16 02:18:47;;;;;;;1.50;1.50;;;;;;;16.06;69.06;96494.81;5004392;28;20435;-57
2023/10/16 02:21:15;;;;;;;1.30;1.30;;;;;;;16.18;68.94;96499.84;5004437;28;20058;-57
2023/10/16 02:23:44;;;;;;;1.40;1.40;;;;;;;16.19;68.48;96495.84;5003902;28;20133;-58
2023/10/16 02:26:12;;;;;;;1.48;1.48;;;;;;;16.28;68.61;96510.09;5005076;28;20488;-57
2023/10/16 02:28:46;;;;;;;1.55;1.55;;;;;;;16.29;68.31;96500.50;5013325;28;20080;-58
2023/10/16 02:31:15;;;;;;;1.50;1.50;;;;;;;16.25;69.25;96505.34;5024178;28;20049;-58
2023/10/16 02:33:46;;;;;;;1.55;1.55;;;;;;;16.02;69.69;96508.06;5022273;28;20141;-57
2023/10/16 02:36:14;;;;;;;1.40;1.40;;;;;;;16.07;69.41;96510.38;5022820;28;20084;-57
2023/10/16 02:38:43;;;;;;;1.38;1.38;;;;;;;16.23;69.15;96510.53;5022197;28;20059;-57
2023/10/16 02:41:11;;;;;;;1.60;1.60;;;;;;;16.30;69.05;96532.81;5024042;28;20053;-57
2023/10/16 02:43:41;;;;;;;1.60;1.60;;;;;;;16.30;69.51;96532.03;5022225;28;20055;-57
2023/10/16 02:46:11;;;;;;;1.50;1.50;;;;;;;15.94;68.56;96492.59;5024093;28;20508;-57
2023/10/16 02:48:41;;;;;;;1.40;1.40;;;;;;;15.93;67.56;96521.72;5023937;28;20391;-58
2023/10/16 02:51:09;;;;;;;1.40;1.40;;;;;;;15.72;67.51;96521.19;5024205;28;20061;-58
2023/10/16 02:53:36;;;;;;;1.20;1.20;;;;;;;15.37;68.79;96538.28;5027627;28;20053;-58
2023/10/16 02:58:32;;;;;;;1.40;1.40;;;;;;;15.49;68.34;96555.31;5027874;28;20396;-58
2023/10/16 03:01:06;;;;;;;1.25;1.25;;;;;;;15.39;68.37;96542.28;5027684;28;20053;-57
2023/10/16 03:03:33;;;;;;;1.30;1.30;;;;;;;15.59;68.52;96557.22;5026321;28;20535;-58
2023/10/16 03:06:00;;;;;;;1.40;1.40;;;;;;;15.28;68.34;96493.31;5027847;28;20057;-57
2023/10/16 03:08:29;;;;;;;1.65;1.65;;;;;;;15.70;68.04;96552.31;5027703;28;20049;-58
2023/10/16 03:10:58;;;;;;;1.40;1.40;;;;;;;15.81;67.47;96561.38;5027216;28;20068;-58
2023/10/16 03:13:25;;;;;;;1.40;1.40;;;;;;;15.86;66.80;96566.50;5026173;28;20517;-59
2023/10/16 03:16:38;;;;;;;1.40;1.40;;;;;;;15.94;66.89;96575.59;5027478;28;20081;-57
2023/10/16 03:18:47;;;;;;;1.42;1.42;;;;;;;16.01;66.19;96584.69;5020026;28;20548;-57
2023/10/16 03:23:44;;;;;;;1.48;1.48;;;;;;;16.05;65.20;96595.81;5026695;28;20057;-58
2023/10/16 03:26:22;;;;;;;1.40;1.40;;;;;;;16.12;64.59;96596.53;5027323;28;20049;-58
2023/10/16 03:28:49;;;;;;;1.50;1.50;;;;;;;15.49;65.15;96541.38;5014893;28;21832;-57
2023/10/16 03:31:15;;;;;;;1.40;1.40;;;;;;;15.52;64.47;96534.19;5005947;28;20504;-58
2023/10/16 03:33:43;;;;;;;1.50;1.50;;;;;;;15.88;64.11;96586.44;5007336;28;20054;-57
2023/10/16 03:36:11;;;;;;;1.45;1.45;;;;;;;14.82;64.95;96541.16;5005640;28;20060;-57
2023/10/16 03:38:40;;;;;;;1.40;1.40;;;;;;;15.38;64.22;96606.84;5006859;28;20243;-57
2023/10/16 03:43:57;;;;;;;1.40;1.40;;;;;;;15.54;64.40;96607.91;5007052;28;20439;-57
2023/10/16 03:46:27;;;;;;;1.40;1.40;;;;;;;15.63;64.31;96611.03;5007067;28;20042;-57
2023/10/16 03:48:57;;;;;;;1.40;1.40;;;;;;;15.64;64.16;96607.03;5007245;28;20060;-57
2023/10/16 03:51:24;;;;;;;1.52;1.52;;;;;;;15.62;65.36;96612.22;5006882;28;20244;-57
2023/10/16 03:53:52;;;;;;;1.40;1.40;;;;;;;15.50;66.76;96621.13;5007085;28;20569;-58
2023/10/16 03:56:20;;;;;;;1.30;1.30;;;;;;;15.54;68.32;96616.28;5006697;28;20054;-58
2023/10/16 03:58:47;;;;;;;1.45;1.45;;;;;;;15.64;67.39;96609.03;5007056;28;20517;-57
2023/10/16 04:01:23;;;;;;;1.30;1.30;;;;;;;15.55;64.81;96606.72;5006475;28;20559;-59
2023/10/16 04:03:56;;;;;;;1.50;1.50;;;;;;;15.65;62.95;96605.03;5004730;28;20081;-59
2023/10/16 04:06:25;;;;;;;1.60;1.60;;;;;;;15.67;62.65;96603.41;5006359;28;20079;-57
2023/10/16 04:08:53;;;;;;;1.30;1.30;;;;;;;15.54;61.65;96610.72;5005041;28;20343;-57
2023/10/16 04:11:23;;;;;;;1.50;1.50;;;;;;;15.38;61.13;96616.03;5006942;28;20054;-57
2023/10/16 04:13:52;;;;;;;1.20;1.20;;;;;;;15.33;60.68;96599.72;5006864;28;20061;-58
2023/10/16 04:21:45;;;;;;;1.30;1.30;;;;;;;14.65;60.17;96536.50;5006343;28;20050;-57
2023/10/16 04:29:25;;;;;;;1.20;1.20;;;;;;;14.94;60.36;96593.63;5020974;28;20053;-58
2023/10/16 04:32:07;;;;;;;1.30;1.30;;;;;;;15.14;59.70;96619.81;5026104;28;20065;-57
2023/10/16 04:34:34;;;;;;;1.20;1.20;;;;;;;15.12;58.98;96611.06;5026019;28;20084;-57
2023/10/16 04:48:23;;;;;;;1.40;1.40;;;;;;;15.30;58.84;96650.75;5025792;28;20049;-57
2023/10/16 04:50:40;;;;;;;1.20;1.20;;;;;;;14.71;58.76;96618.50;5023210;28;20049;-57
2023/10/16 04:53:14;;;;;;;1.23;1.23;;;;;;;14.97;58.31;96656.97;5023177;28;20049;-57
2023/10/16 05:01:46;;;;;;;1.30;1.30;;;;;;;15.07;57.38;96653.31;5025415;28;20064;-58
2023/10/16 05:07:06;;;;;;;1.30;1.30;;;;;;;15.09;57.77;96667.66;5025328;28;20084;-59
2023/10/16 05:18:00;;;;;;;1.40;1.40;;;;;;;15.40;56.31;96671.44;5025262;28;20053;-57
2023/10/16 06:15:32;;;;;;;1.40;1.40;;;;;;;16.02;39.68;96807.00;5023168;28;20052;-67
2023/10/16 06:18:04;;;;;;;1.20;1.20;;;;;;;15.88;38.50;96815.50;5023478;28;20067;-66
2023/10/16 06:20:31;;;;;;;1.40;1.40;;;;;;;15.93;38.83;96803.09;5019518;28;20049;-64
2023/10/16 06:22:58;;;;;;;1.48;1.48;;;;;;;16.09;39.19;96809.72;5022282;28;20055;-62
2023/10/16 06:25:33;;;;;;;1.60;1.60;;;;;;;16.11;39.42;96835.25;5016512;28;20115;-70
2023/10/16 06:27:59;;;;;;;1.40;1.40;;;;;;;15.22;41.49;96752.50;5021367;28;20045;-61
2023/10/16 06:30:27;;;;;;;1.50;1.50;;;;;;;15.88;39.73;96815.50;5002377;28;20674;-56
2023/10/16 06:32:54;;;;;;;1.40;1.40;;;;;;;16.02;40.57;96809.78;5013978;28;20084;-58
2023/10/16 06:35:21;;;;;;;1.30;1.30;;;;;;;14.27;39.59;96534.75;5015218;28;20050;-62
2023/10/16 06:37:55;;;;;;;1.35;1.35;;;;;;;15.95;39.75;96779.09;5013615;28;20049;-60
2023/10/16 06:40:25;;;;;;;1.35;1.35;;;;;;;16.46;38.90;96840.59;5003358;28;20136;-64
2023/10/16 06:43:11;;;;;;;1.50;1.50;;;;;;;16.54;38.71;96836.50;5007357;28;20063;-73
2023/10/16 06:45:53;;;;;;;1.58;1.58;;;;;;;16.12;38.50;96898.31;5003513;28;20365;-62
2023/10/16 06:48:20;;;;;;;1.50;1.50;;;;;;;15.16;39.72;96802.34;4994144;28;20057;-63
2023/10/16 06:50:54;;;;;;;1.60;1.60;;;;;;;15.76;39.38;96852.28;4994448;28;20049;-58
2023/10/16 06:53:24;;;;;;;1.33;1.33;;;;;;;16.29;38.95;96880.66;4985393;28;20786;-62
2023/10/16 06:55:51;;;;;;;1.60;1.60;;;;;;;16.09;38.48;96820.91;4985134;28;20061;-62
2023/10/16 06:58:20;;;;;;;1.50;1.50;;;;;;;16.74;38.30;96900.25;4984725;28;20448;-57
2023/10/16 07:00:52;;;;;;;1.60;1.60;;;;;;;16.73;38.01;96893.06;4998347;28;20053;-67
2023/10/16 07:03:20;;;;;;;1.80;1.80;;;;;;;16.77;37.44;96899.44;5005698;28;20063;-66
2023/10/16 07:05:48;;;;;;;1.42;1.42;;;;;;;16.43;37.42;96838.59;5002322;28;20049;-56
2023/10/16 07:08:19;;;;;;;1.60;1.60;;;;;;;16.82;37.53;96907.38;5002745;28;20053;-56
2023/10/16 07:10:51;;;;;;;1.45;1.45;;;;;;;16.34;36.55;96803.94;4994591;28;20061;-54
2023/10/16 07:13:28;;;;;;;1.50;1.50;;;;;;;16.80;36.59;96915.38;5020011;28;20111;-57
2023/10/16 07:16:04;;;;;;;1.50;1.50;;;;;;;16.92;36.25;96909.25;5001072;28;20060;-60
2023/10/16 07:18:33;;;;;;;1.70;1.70;;;;;;;16.74;35.79;96877.88;5002098;28;20049;-68
2023/10/16 07:21:08;;;;;;;1.58;1.58;;;;;;;16.76;35.20;96942.59;4481290;28;10001990;-73
2023/10/16 07:23:35;;;;;;;1.58;1.58;;;;;;;16.72;35.54;96936.25;3029952;28;10002026;-59
2023/10/16 07:26:04;;;;;;;1.60;1.60;;;;;;;16.91;35.89;96916.88;4981767;28;20052;-60
2023/10/16 07:28:32;;;;;;;1.50;1.50;;;;;;;16.95;35.01;96922.44;4965378;28;20045;-58
2023/10/16 07:30:59;;;;;;;1.60;1.60;;;;;;;15.55;35.44;96740.75;4985325;28;20053;-73
2023/10/16 07:33:27;;;;;;;1.70;1.70;;;;;;;17.02;35.03;96944.75;4996013;28;20054;-57
2023/10/16 07:35:56;;;;;;;1.85;1.85;;;;;;;17.34;34.81;96946.00;5003132;28;20042;-58
2023/10/16 07:38:25;;;;;;;1.80;1.80;;;;;;;16.87;33.44;96876.13;5006084;28;20559;-62
2023/10/16 07:41:02;;;;;;;1.70;1.70;;;;;;;17.66;33.43;96974.47;4989879;28;20444;-56
2023/10/16 07:43:33;;;;;;;1.70;1.70;;;;;;;17.96;32.73;96990.53;4999684;28;20057;-56
2023/10/16 07:48:35;;;;;;;1.70;1.70;;;;;;;17.55;32.28;96981.41;5005931;28;20050;-67
2023/10/16 07:51:06;;;;;;;1.73;1.73;;;;;;;17.65;31.92;96983.31;4988024;28;20161;-62
2023/10/16 07:53:34;;;;;;;1.80;1.80;;;;;;;17.81;33.14;96935.88;5001369;28;20145;-70
2023/10/16 07:56:02;;;;;;;2.08;2.08;;;;;;;18.07;32.63;96960.34;5003518;28;20060;-65
2023/10/16 07:58:47;;;;;;;1.80;1.80;;;;;;;18.16;31.72;96980.25;5004835;28;20092;-66
2023/10/16 08:01:17;;;;;;;1.90;1.90;;;;;;;17.21;32.08;96981.38;4997327;28;20090;-60
2023/10/16 08:03:48;;;;;;;1.85;1.85;;;;;;;17.63;32.83;96977.31;5003711;28;20082;-67
2023/10/16 08:06:23;;;;;;;1.80;1.80;;;;;;;17.51;32.78;96983.47;5005800;28;20116;-75
2023/10/16 08:11:42;;;;;;;1.80;1.80;;;;;;;16.90;33.33;96988.03;5005082;28;20049;-67
2023/10/16 08:14:10;;;;;;;1.80;1.80;;;;;;;16.55;34.00;96991.91;4991622;28;20228;-60
2023/10/16 08:16:40;;;;;;;1.42;1.42;;;;;;;15.83;34.25;97003.06;4997120;28;20434;-74
2023/10/16 08:19:23;;;;;;;1.55;1.55;;;;;;;16.26;34.92;96998.88;4988252;28;20057;-60
2023/10/16 08:21:54;;;;;;;1.60;1.60;;;;;;;16.38;34.67;96938.88;5003816;28;20058;-61
2023/10/16 08:24:21;;;;;;;1.65;1.65;;;;;;;17.22;33.97;96993.34;5004978;28;20862;-59
2023/10/16 08:26:48;;;;;;;1.65;1.65;;;;;;;16.46;33.48;96876.94;5004279;28;20061;-64
2023/10/16 08:29:20;;;;;;;1.70;1.70;;;;;;;17.37;33.20;96989.19;4987879;28;20417;-63
2023/10/16 08:32:27;;;;;;;1.90;1.90;;;;;;;17.30;33.77;96938.84;4988198;28;20057;-68
2023/10/16 08:34:35;;;;;;;1.58;1.58;;;;;;;17.77;33.60;96997.56;5004814;28;20574;-61
2023/10/16 08:37:03;;;;;;;1.58;1.58;;;;;;;17.78;32.87;96998.38;4969509;28;20059;-62
2023/10/16 08:39:36;;;;;;;1.77;1.77;;;;;;;17.74;32.91;96952.78;4965351;28;20065;-57
2023/10/16 08:42:19;;;;;;;1.90;1.90;;;;;;;18.26;32.98;97017.78;4966610;28;20086;-61
2023/10/16 08:47:33;;;;;;;1.95;1.95;;;;;;;17.33;33.11;97022.03;4966774;28;20126;-58
2023/10/16 08:50:04;;;;;;;1.65;1.65;;;;;;;17.58;33.12;97033.78;4957109;28;20055;-57
2023/10/16 08:52:34;;;;;;;1.90;1.90;;;;;;;17.54;33.17;97033.06;4946763;28;20059;-62
2023/10/16 08:55:14;;;;;;;1.60;1.60;;;;;;;16.99;32.72;97029.53;4947037;28;20419;-58
2023/10/16 08:57:44;;;;;;;1.50;1.50;;;;;;;17.19;32.85;97041.75;4945398;29;20525;-58
2023/10/16 09:00:23;;;;;;;1.73;1.73;;;;;;;17.56;31.78;97025.03;4945449;28;20153;-62
2023/10/16 09:02:53;;;;;;;1.77;1.77;;;;;;;17.38;32.13;97019.59;4945414;29;20059;-58
2023/10/16 09:05:23;;;;;;;1.88;1.88;;;;;;;17.37;31.58;97034.00;4946130;28;20063;-57
2023/10/16 09:07:51;;;;;;;1.63;1.63;;;;;;;17.48;31.34;97034.72;4947079;29;20066;-60
2023/10/16 09:10:21;;;;;;;1.73;1.73;;;;;;;17.47;31.00;97024.72;4944298;28;20086;-57
2023/10/16 09:12:54;;;;;;;1.80;1.80;;;;;;;17.68;31.00;97044.09;4945414;29;20522;-62
2023/10/16 09:15:27;;;;;;;2.00;2.00;;;;;;;17.83;30.54;97023.91;4946462;28;20050;-58
2023/10/16 09:17:56;;;;;;;1.83;1.83;;;;;;;17.50;30.87;96993.88;4946703;28;20142;-58
2023/10/16 09:20:33;;;;;;;1.92;1.92;;;;;;;17.64;30.68;97051.75;4946096;28;20055;-60
2023/10/16 09:23:02;;;;;;;1.85;1.85;;;;;;;17.05;30.57;96991.50;4946545;29;20462;-57
2023/10/16 09:25:31;;;;;;;1.85;1.85;;;;;;;17.50;30.27;97061.09;4951767;28;20054;-57
2023/10/16 09:28:05;;;;;;;1.90;1.90;;;;;;;16.52;32.41;97059.84;4965959;28;20058;-58
2023/10/16 09:30:33;;;;;;;1.63;1.63;;;;;;;16.93;31.28;97059.19;4963969;28;20213;-61
2023/10/16 09:33:00;;;;;;;1.63;1.63;;;;;;;17.63;31.69;97064.97;4965518;28;20050;-60
2023/10/16 09:35:30;;;;;;;1.50;1.50;;;;;;;17.25;30.74;97065.28;4965673;28;20306;-61
2023/10/16 09:38:17;;;;;;;1.55;1.55;;;;;;;16.99;29.91;97007.16;4966147;28;20065;-60
2023/10/16 09:43:56;;;;;;;1.70;1.70;;;;;;;17.19;29.68;96982.97;4964989;28;20055;-62
2023/10/16 09:49:13;;;;;;;1.95;1.95;;;;;;;17.80;29.05;97086.41;4965506;28;20514;-59
2023/10/16 09:51:44;;;;;;;1.50;1.50;;;;;;;17.56;29.01;97064.25;4965712;28;20055;-58
2023/10/16 09:54:31;;;;;;;2.08;2.08;;;;;;;17.64;29.64;97043.38;4964657;28;20162;-59
2023/10/16 09:57:00;;;;;;;1.75;1.75;;;;;;;17.47;30.38;97047.13;4965379;28;20054;-62
2023/10/16 09:59:33;;;;;;;1.75;1.75;;;;;;;17.14;30.42;97059.78;4965402;28;20070;-62
2023/10/16 10:02:16;;;;;;;1.80;1.80;;;;;;;17.51;29.83;97067.50;4965191;28;20596;-57
2023/10/16 10:04:53;;;;;;;1.75;1.75;;;;;;;17.13;30.21;97068.59;4965060;28;20125;-59
2023/10/16 10:07:34;;;;;;;1.35;1.35;;;;;;;17.17;29.95;97069.34;4963689;28;20058;-63
2023/10/16 10:11:04;;;;;;;1.88;1.88;;;;;;;17.38;30.20;97052.38;4964892;28;20069;-58
2023/10/16 10:12:56;;;;;;;1.65;1.65;;;;;;;16.52;30.08;97039.47;4965231;28;20051;-58
2023/10/16 10:15:35;;;;;;;1.70;1.70;;;;;;;16.30;29.83;97066.72;4964552;28;20046;-62
2023/10/16 10:20:59;;;;;;;1.33;1.33;;;;;;;16.19;30.27;97035.22;4956069;28;20054;-62
2023/10/16 10:23:26;;;;;;;1.70;1.70;;;;;;;15.92;30.47;97016.59;4964612;28;20054;-63
2023/10/16 10:25:53;;;;;;;1.40;1.40;;;;;;;16.74;30.00;97079.31;4964548;28;20058;-63
2023/10/16 10:28:38;;;;;;;1.33;1.33;;;;;;;16.63;28.57;97032.59;4964881;28;20050;-59
2023/10/16 10:31:05;;;;;;;1.58;1.58;;;;;;;16.19;28.97;96987.72;4947417;28;20155;-60
2023/10/16 10:33:42;;;;;;;1.70;1.70;;;;;;;17.02;29.59;97074.31;4945620;28;20059;-58
2023/10/16 10:36:39;;;;;;;1.70;1.70;;;;;;;17.30;28.74;97067.66;4945128;28;20061;-58
2023/10/16 10:39:39;;;;;;;1.73;1.73;;;;;;;17.05;28.11;97067.88;4943832;28;20437;-62
2023/10/16 10:42:28;;;;;;;1.60;1.60;;;;;;;17.52;26.79;97052.28;4945643;29;20043;-58
2023/10/16 10:44:55;;;;;;;1.70;1.70;;;;;;;17.11;26.92;96953.44;4945281;28;20055;-63
2023/10/16 10:47:24;;;;;;;1.52;1.52;;;;;;;17.66;26.46;96984.88;4939143;28;20102;-63
2023/10/16 10:49:51;;;;;;;1.75;1.75;;;;;;;18.05;26.23;97069.31;4984955;28;20055;-62
2023/10/16 10:52:20;;;;;;;1.70;1.70;;;;;;;17.74;26.52;97076.06;4983465;28;20058;-64
2023/10/16 10:54:58;;;;;;;1.70;1.70;;;;;;;17.56;26.08;97081.06;4983816;28;20376;-58
2023/10/16 10:57:26;;;;;;;1.50;1.50;;;;;;;17.68;25.53;97058.13;4984135;28;20152;-58
2023/10/16 10:59:56;;;;;;;1.80;1.80;;;;;;;17.70;25.92;97002.47;4982365;28;20047;-62
2023/10/16 11:04:59;;;;;;;1.90;1.90;;;;;;;17.89;26.02;97077.50;4994515;28;20089;-58
2023/10/16 11:07:45;;;;;;;1.90;1.90;;;;;;;17.88;26.55;97064.69;4984572;28;20172;-58
2023/10/16 11:10:13;;;;;;;1.80;1.80;;;;;;;17.96;26.21;97071.81;4982864;28;20884;-59
2023/10/16 11:12:40;;;;;;;1.80;1.80;;;;;;;17.85;26.46;97059.91;4986528;28;20120;-63
2023/10/16 11:15:11;;;;;;;1.92;1.92;;;;;;;17.99;26.59;97065.38;4976651;28;20097;-63
2023/10/16 11:17:38;;;;;;;1.60;1.60;;;;;;;18.23;26.45;97043.84;4986740;28;20104;-59
2023/10/16 11:20:26;;;;;;;2.00;2.00;;;;;;;17.48;26.08;96973.09;4987086;28;20572;-59
2023/10/16 11:22:57;;;;;;;1.80;1.80;;;;;;;17.49;26.75;97013.88;4986813;28;20065;-58
2023/10/16 11:25:34;;;;;;;1.60;1.60;;;;;;;17.48;27.23;97085.13;4985154;28;20086;-58
2023/10/16 11:28:07;;;;;;;1.55;1.55;;;;;;;17.89;27.18;97077.50;5002485;28;20512;-57
2023/10/16 11:30:38;;;;;;;1.88;1.88;;;;;;;18.42;27.25;97060.84;4987308;28;20073;-60
2023/10/16 11:33:09;;;;;;;1.70;1.70;;;;;;;18.13;26.45;97042.75;5005563;28;20084;-57
2023/10/16 11:35:36;;;;;;;1.90;1.90;;;;;;;18.20;27.44;97048.28;5004536;28;20620;-61
2023/10/16 11:38:13;;;;;;;1.88;1.88;;;;;;;17.50;27.09;96943.44;5005236;28;20042;-58
2023/10/16 11:40:42;;;;;;;2.00;2.00;;;;;;;17.53;28.21;97004.25;5005966;28;20435;-58
2023/10/16 11:43:12;;;;;;;1.50;1.50;;;;;;;17.33;28.06;96989.22;5004268;28;20054;-60
2023/10/16 11:45:39;;;;;;;1.60;1.60;;;;;;;16.49;29.64;96951.59;5005865;28;20080;-63
2023/10/16 11:51:05;;;;;;;1.60;1.60;;;;;;;17.51;28.06;97090.72;5005782;28;20120;-64
2023/10/16 11:53:33;;;;;;;1.77;1.77;;;;;;;17.69;28.88;97084.91;5005373;28;20062;-59
2023/10/16 11:56:01;;;;;;;1.67;1.67;;;;;;;15.57;29.92;96780.19;4988019;28;20050;-63
2023/10/16 11:58:31;;;;;;;1.70;1.70;;;;;;;17.92;29.81;97082.28;5005047;28;20053;-60
2023/10/16 12:01:08;;;;;;;1.70;1.70;;;;;;;17.65;29.78;97098.16;5005862;28;20085;-58
2023/10/16 12:03:55;;;;;;;1.50;1.50;;;;;;;17.40;30.45;97089.19;4997471;28;20046;-60
2023/10/16 12:06:22;;;;;;;1.67;1.67;;;;;;;17.26;30.40;97089.31;5001027;28;20057;-60
2023/10/16 12:08:49;;;;;;;1.77;1.77;;;;;;;16.80;30.51;97016.09;5002843;28;20050;-59
2023/10/16 12:11:15;;;;;;;1.90;1.90;;;;;;;16.79;30.22;96975.34;4981527;28;20457;-64
2023/10/16 12:13:43;;;;;;;1.50;1.50;;;;;;;17.56;31.18;97117.47;5003059;28;20064;-60
2023/10/16 12:16:10;;;;;;;1.67;1.67;;;;;;;17.13;29.88;97035.00;5003708;28;20049;-73
2023/10/16 12:18:56;;;;;;;1.70;1.70;;;;;;;17.72;30.02;97114.94;4991147;28;20140;-67
2023/10/16 12:21:23;;;;;;;1.90;1.90;;;;;;;17.46;30.05;97104.34;5001741;28;20131;-60
2023/10/16 12:23:50;;;;;;;1.70;1.70;;;;;;;17.19;29.70;97118.16;5004532;28;20058;-61
2023/10/16 12:26:17;;;;;;;1.60;1.60;;;;;;;16.71;29.69;97047.31;5001991;28;20046;-63
2023/10/16 12:28:44;;;;;;;1.70;1.70;;;;;;;17.33;30.23;97106.03;4987365;28;20103;-66
2023/10/16 12:31:12;;;;;;;1.70;1.70;;;;;;;17.52;30.54;97119.50;5003610;28;20512;-58
2023/10/16 12:33:38;;;;;;;1.52;1.52;;;;;;;16.81;30.46;97034.47;5003458;28;20057;-60
2023/10/16 12:36:07;;;;;;;1.80;1.80;;;;;;;15.86;30.54;96890.53;5004168;28;20049;-62
2023/10/16 12:38:34;;;;;;;1.63;1.63;;;;;;;16.97;29.22;97045.94;5005178;28;20101;-57
2023/10/16 12:41:05;;;;;;;1.65;1.65;;;;;;;17.80;28.99;97124.81;4987119;28;20049;-64
2023/10/16 12:43:32;;;;;;;1.73;1.73;;;;;;;17.65;28.86;97126.19;5004453;28;20054;-58
2023/10/16 12:45:59;;;;;;;1.60;1.60;;;;;;;17.54;29.20;97077.88;5004549;28;20161;-59
2023/10/16 12:48:28;;;;;;;1.70;1.70;;;;;;;17.89;29.72;97139.16;5003881;28;20111;-58
2023/10/16 12:51:00;;;;;;;1.75;1.75;;;;;;;17.37;29.64;97073.97;5003306;28;20982;-59
2023/10/16 12:53:38;;;;;;;1.80;1.80;;;;;;;17.80;30.12;97130.44;5004019;28;20086;-60
2023/10/16 12:56:07;;;;;;;1.92;1.92;;;;;;;17.47;29.81;97111.53;4986798;28;20052;-63
2023/10/16 12:58:34;;;;;;;1.63;1.63;;;;;;;17.57;30.04;97133.06;5003506;28;20056;-55
2023/10/16 13:01:05;;;;;;;1.80;1.80;;;;;;;16.89;29.43;97075.19;5001145;28;20060;-62
2023/10/16 13:03:33;;;;;;;1.70;1.70;;;;;;;17.28;29.00;97126.06;5002229;28;20057;-58
2023/10/16 13:06:07;;;;;;;1.60;1.60;;;;;;;17.51;28.40;97126.31;4986197;28;20158;-58
2023/10/16 13:08:34;;;;;;;1.80;1.80;;;;;;;17.04;28.64;97099.06;4999631;28;20045;-63
2023/10/16 13:11:01;;;;;;;1.60;1.60;;;;;;;17.24;28.48;97142.91;5002054;28;20064;-56
2023/10/16 13:13:28;;;;;;;1.90;1.90;;;;;;;17.20;28.25;97104.97;5001600;28;20348;-58
2023/10/16 13:15:57;;;;;;;1.80;1.80;;;;;;;17.41;28.67;97141.16;4985848;28;20050;-62
2023/10/16 13:18:27;;;;;;;1.80;1.80;;;;;;;17.36;29.33;97144.41;5003768;28;20115;-56
2023/10/16 13:20:57;;;;;;;1.80;1.80;;;;;;;17.39;29.53;97154.78;4986010;28;20061;-61
2023/10/16 13:23:25;;;;;;;1.70;1.70;;;;;;;16.63;30.15;97059.00;4993537;28;20120;-60
2023/10/16 13:26:11;;;;;;;1.83;1.83;;;;;;;16.73;30.37;97102.88;5000715;28;20538;-57
2023/10/16 13:28:42;;;;;;;1.65;1.65;;;;;;;17.09;30.06;97126.59;4985781;28;20058;-56
2023/10/16 13:31:09;;;;;;;1.63;1.63;;;;;;;17.24;30.47;97167.31;4998667;28;20042;-61
2023/10/16 13:33:41;;;;;;;1.70;1.70;;;;;;;15.96;30.64;97023.78;5001543;28;20186;-58
2023/10/16 13:36:11;;;;;;;1.58;1.58;;;;;;;16.52;31.06;97160.53;4987453;28;20053;-60
2023/10/16 13:38:39;;;;;;;1.60;1.60;;;;;;;14.84;30.46;96834.34;5001725;28;20574;-60
2023/10/16 13:41:18;;;;;;;1.50;1.50;;;;;;;16.54;30.39;97118.97;5002989;28;20138;-61
2023/10/16 13:43:46;;;;;;;1.70;1.70;;;;;;;14.56;30.78;96835.19;4986454;28;20046;-61
2023/10/16 13:46:14;;;;;;;1.40;1.40;;;;;;;16.50;31.20;97160.13;4983640;28;20050;-60
2023/10/16 13:48:47;;;;;;;1.50;1.50;;;;;;;16.30;31.12;97149.78;5003240;28;20112;-65
2023/10/16 13:51:18;;;;;;;1.30;1.30;;;;;;;16.36;30.92;97165.75;5000959;28;20774;-61
2023/10/16 13:53:46;;;;;;;1.35;1.35;;;;;;;16.26;30.74;97155.41;5003778;28;20054;-57
2023/10/16 13:56:16;;;;;;;1.23;1.23;;;;;;;16.12;31.22;97177.00;5001737;28;20503;-57